This is the latest recevied weather packets stored in our database for station/object KW6V-15. If no packets are shown the sender has not sent any weather packets the latest 10 day(s).
| Time | Temp. | Humidity | Pressure | Rain* | Wind** | Luminosity | Snow |
|---|---|---|---|---|---|---|---|
| 1777681837 | 15.56° C | 78% | 1013.7 hPa | 0 mm | - | - | - |
| 1777680062 | 16.67° C | 76% | 1013.7 hPa | 0 mm | - | - | - |
| 1777678224 | 17.78° C | 74% | 1013.8 hPa | 0 mm | - | - | - |
| 1777676421 | 17.78° C | 74% | 1013.9 hPa | 0 mm | - | - | - |
| 1777674629 | 17.78° C | 74% | 1014.2 hPa | 0 mm | - | - | - |
| 1777672834 | 17.78° C | 73% | 1014.5 hPa | 0 mm | - | - | - |
| 1777671088 | 18.33° C | 72% | 1014.7 hPa | 0 mm | - | - | - |
| 1777669283 | 18.89° C | 73% | 1014.7 hPa | 0 mm | - | - | - |
| 1777667436 | 17.22° C | 73% | 1015 hPa | 0 mm | - | - | - |
| 1777665621 | 17.22° C | 73% | 1015.2 hPa | 0 mm | - | - | - |
| 1777663855 | 17.78° C | 74% | 1015.3 hPa | 0 mm | - | - | - |
| 1777662093 | 17.78° C | 73% | 1015.4 hPa | 0 mm | - | - | - |
| 1777660237 | 17.78° C | 75% | 1015.5 hPa | 0 mm | - | - | - |
| 1777658480 | 16.67° C | 79% | 1015.5 hPa | 0 mm | - | - | - |
| 1777656635 | 16.11° C | 80% | 1015.5 hPa | 0 mm | - | - | - |
| 1777654825 | 14.44° C | 82% | 1015.7 hPa | 0 mm | - | - | - |
| 1777653020 | 15° C | 81% | 1015.5 hPa | 0 mm | - | - | - |
| 1777651222 | 14.44° C | 83% | 1015.5 hPa | 0 mm | - | - | - |
| 1777649423 | 12.22° C | 90% | 1015.5 hPa | 0 mm | - | - | - |
| 1777647689 | 11.67° C | 92% | 1015.3 hPa | 0 mm | - | - | - |
| 1777645821 | 10.56° C | 92% | 1015.1 hPa | 0 mm | - | - | - |
| 1777644055 | 10.56° C | 92% | 1014.5 hPa | 0 mm | - | - | - |
| 1777642855 | 10.56° C | 92% | 1014.4 hPa | 0 mm | - | - | - |
| 1777640429 | 10.56° C | 92% | 1014.4 hPa | 0 mm | - | - | - |
| 1777638630 | 10.56° C | 92% | 1014.5 hPa | 0 mm | - | - | - |
* Rain latest hour (hover to see other rain measurements)
** Current wind speed in m/s (hover to see current wind gust speed)